Grandeur Of The Seas — C6SE3 — position and weather

sailwx.info

Track history (hours):
 
Tides and Currents Weather Stations Pressure Air Temp Water Temp Dewpoint Dewpoint Depression Visibility Wind Speed Wind Dir Waves Ship Positions

Grandeur Of The Seas

Operator: Royal Caribbean Cruises Ltd

Last reported at 2016-Jul-30 18:32 UTC. Time now 2016-Jul-30 18:52 UTC.
Position N 39°16' W 076°36'.

Type: Passenger vessel. MMSI: 311315000.

Date/timePositionNaut miles runAvg speedWind from/ knotsBaromVisibWave heightAir tempDewpointWater temp
2016-Jul-30 18:32N 39°16' W 076°36'0 0.0
2016-Jul-30 17:32N 39°16' W 076°36'0 0.0
2016-Jul-30 16:32N 39°16' W 076°36'0 0.0
2016-Jul-30 15:29N 39°16' W 076°36'0 0.0
2016-Jul-30 14:32N 39°16' W 076°36'0 0.0
2016-Jul-30 13:32N 39°16' W 076°36'0 0.0
2016-Jul-30 12:32N 39°16' W 076°36'0 0.0
2016-Jul-30 11:32N 39°16' W 076°36'0 0.5
2016-Jul-30 10:33N 39°16' W 076°36'9 8.6
2016-Jul-30 09:33N 39°11' W 076°26'1312.8
2016-Jul-30 08:34N 38°58' W 076°23'1414.5
2016-Jul-30 07:34N 38°44' W 076°26'1413.8
2016-Jul-30 06:33N 38°30' W 076°24'63014.1
2016-Jul-28 10:00N 28°00' W 076°30'   340 / 71018.0 28.026.731.0
2016-Jul-25 07:00N 30°24' W 068°00'   250 / 61018.0 28.026.730.0
2016-Jul-22 10:00N 36°12' W 074°24'8819.8 250 / 81018.0 25.023.629.0
2016-Jul-22 05:33N 36°56' W 075°58'6515.9
2016-Jul-22 01:30N 38°00' W 076°12'5418.3
2016-Jul-21 22:33N 38°53' W 076°24'1414.4
2016-Jul-21 21:34N 39°08' W 076°24'1111.0
2016-Jul-21 20:33N 39°15' W 076°34'2 1.5
2016-Jul-21 19:31N 39°16' W 076°36'0 0.0
2016-Jul-21 18:31N 39°16' W 076°36'0 0.0
2016-Jul-21 17:31N 39°16' W 076°36'0 0.0
2016-Jul-21 16:31N 39°16' W 076°36'0 0.0
2016-Jul-21 15:31N 39°16' W 076°36'0 0.0
2016-Jul-21 14:31N 39°16' W 076°36'0 0.0
2016-Jul-21 13:31N 39°16' W 076°36'0 0.0
2016-Jul-21 12:31N 39°16' W 076°36'0 0.0
2016-Jul-21 11:32N 39°16' W 076°36'1 0.7
2016-Jul-21 10:33N 39°15' W 076°35'9 9.3
2016-Jul-21 09:34N 39°10' W 076°25'1414.3
2016-Jul-21 08:34N 38°56' W 076°23'1716.5
2016-Jul-21 07:33N 38°39' W 076°25'1616.2
2016-Jul-21 06:34N 38°23' W 076°21'1514.6
2016-Jul-21 05:33N 38°10' W 076°14'7016.7
2016-Jul-21 01:23N 37°01' W 076°03'  
Track history (hours):
 
Tides and Currents Weather Stations Pressure Air Temp Water Temp Dewpoint Dewpoint Depression Visibility Wind Speed Wind Dir Waves Ship Positions

Grandeur Of The Seas

Operator: Royal Caribbean Cruises Ltd

Last reported at 2016-Jul-30 18:32 UTC. Time now 2016-Jul-30 18:52 UTC.
Position N 39°16' W 076°36'.

Type: Passenger vessel. MMSI: 311315000.

Date/timePositionNaut miles runAvg speedWind from/ knotsBaromVisibWave heightAir tempDewpointWater temp
2016-Jul-30 18:32N 39°16' W 076°36'0 0.0
2016-Jul-30 17:32N 39°16' W 076°36'0 0.0
2016-Jul-30 16:32N 39°16' W 076°36'0 0.0
2016-Jul-30 15:29N 39°16' W 076°36'0 0.0
2016-Jul-30 14:32N 39°16' W 076°36'0 0.0
2016-Jul-30 13:32N 39°16' W 076°36'0 0.0
2016-Jul-30 12:32N 39°16' W 076°36'0 0.0
2016-Jul-30 11:32N 39°16' W 076°36'0 0.5
2016-Jul-30 10:33N 39°16' W 076°36'9 8.6
2016-Jul-30 09:33N 39°11' W 076°26'1312.8
2016-Jul-30 08:34N 38°58' W 076°23'1414.5
2016-Jul-30 07:34N 38°44' W 076°26'1413.8
2016-Jul-30 06:33N 38°30' W 076°24'63014.1
2016-Jul-28 10:00N 28°00' W 076°30'   340 / 71018.0 28.026.731.0
2016-Jul-25 07:00N 30°24' W 068°00'   250 / 61018.0 28.026.730.0
2016-Jul-22 10:00N 36°12' W 074°24'8819.8 250 / 81018.0 25.023.629.0
2016-Jul-22 05:33N 36°56' W 075°58'6515.9
2016-Jul-22 01:30N 38°00' W 076°12'5418.3
2016-Jul-21 22:33N 38°53' W 076°24'1414.4
2016-Jul-21 21:34N 39°08' W 076°24'1111.0
2016-Jul-21 20:33N 39°15' W 076°34'2 1.5
2016-Jul-21 19:31N 39°16' W 076°36'0 0.0
2016-Jul-21 18:31N 39°16' W 076°36'0 0.0
2016-Jul-21 17:31N 39°16' W 076°36'0 0.0
2016-Jul-21 16:31N 39°16' W 076°36'0 0.0
2016-Jul-21 15:31N 39°16' W 076°36'0 0.0
2016-Jul-21 14:31N 39°16' W 076°36'0 0.0
2016-Jul-21 13:31N 39°16' W 076°36'0 0.0
2016-Jul-21 12:31N 39°16' W 076°36'0 0.0
2016-Jul-21 11:32N 39°16' W 076°36'1 0.7
2016-Jul-21 10:33N 39°15' W 076°35'9 9.3
2016-Jul-21 09:34N 39°10' W 076°25'1414.3
2016-Jul-21 08:34N 38°56' W 076°23'1716.5
2016-Jul-21 07:33N 38°39' W 076°25'1616.2
2016-Jul-21 06:34N 38°23' W 076°21'1514.6
2016-Jul-21 05:33N 38°10' W 076°14'7016.7
2016-Jul-21 01:23N 37°01' W 076°03'  

Dump ship's entire track history